Main page
METAR-TAF:

METAR-TAF

Airports :

A Coruña Airport

A Coruña, Spain

latitude: 43-18N, longitude: 008-23W, elevation: 97 m

Current weather observation

The report was made 15 minutes ago, at 19:30 UTC
Wind 10 kt from the East/Northeast, varying between North/Northeast and East
Temperature 8°C
Humidity 61%
Pressure 1029 hPa
Visibility 10 km or more
no clouds below 1500 m and no cumulonimbus

METAR: LECO 211930Z 06010KT 030V100 CAVOK 08/01 Q1029 NOSIG

Time: 20:45 (19:45 UTC)

Forecast

The report was made 5 hours and 45 minutes ago, at 14:00 UTC
Forecast valid from 21 at 15 UTC to 22 at 15 UTC
Wind 5 kt from variable directions
Visibility 10 km or more
no clouds below 1500 m and no cumulonimbus
Probability 30% :
Temporary
from 21 at 15 UTC to 21 at 20 UTC
Wind 10 kt from the East
Probability 30% :
Temporary
from 22 at 03 UTC to 22 at 08 UTC
Visibility: 3000 m
mist

TAF: LECO 211400Z 2115/2215 VRB05KT CAVOK TX12/2214Z TNM00/2206Z PROB30 TEMPO 2115/2120 09010KT PROB30 TEMPO 2203/2208 3000 BR

Weather observations and forecasts of more than 4000 airports (METAR and TAF reports).

The available stations are represented by yellow and red dots on the map.

Hover mouse over dot to see the name of the station.

Then click to see weather observations and forecasts.

To change the map : click on the green buttons with a black cross to zoom in, on the green button with a dash to zoom out, or on the green arrows for adjacent maps.


METAR-TAF: